sensor_id;sensor_type;location;lat;lon;timestamp;P1;durP1;ratioP1;P2;durP2;ratioP2
19733;SDS011;10018;51.230;7.860;2022-07-15T00:00:06;4.73;;;2.90;;
19733;SDS011;10018;51.230;7.860;2022-07-15T00:02:33;4.83;;;2.30;;
19733;SDS011;10018;51.230;7.860;2022-07-15T00:04:59;7.93;;;2.83;;
19733;SDS011;10018;51.230;7.860;2022-07-15T00:07:25;5.20;;;2.60;;
19733;SDS011;10018;51.230;7.860;2022-07-15T00:09:50;4.67;;;2.60;;
19733;SDS011;10018;51.230;7.860;2022-07-15T00:12:35;6.57;;;2.70;;
19733;SDS011;10018;51.230;7.860;2022-07-15T00:15:01;5.00;;;2.87;;
19733;SDS011;10018;51.230;7.860;2022-07-15T00:17:27;5.13;;;2.63;;
19733;SDS011;10018;51.230;7.860;2022-07-15T00:19:53;6.47;;;2.70;;
19733;SDS011;10018;51.230;7.860;2022-07-15T00:22:19;6.23;;;2.90;;
19733;SDS011;10018;51.230;7.860;2022-07-15T00:24:45;5.63;;;2.90;;
19733;SDS011;10018;51.230;7.860;2022-07-15T00:27:10;5.53;;;2.67;;
19733;SDS011;10018;51.230;7.860;2022-07-15T00:29:36;4.87;;;2.77;;
19733;SDS011;10018;51.230;7.860;2022-07-15T00:32:02;5.70;;;2.47;;
19733;SDS011;10018;51.230;7.860;2022-07-15T00:34:28;5.23;;;3.20;;
19733;SDS011;10018;51.230;7.860;2022-07-15T00:36:53;7.67;;;2.70;;
19733;SDS011;10018;51.230;7.860;2022-07-15T00:39:19;5.07;;;2.70;;
19733;SDS011;10018;51.230;7.860;2022-07-15T00:41:45;6.53;;;3.00;;
19733;SDS011;10018;51.230;7.860;2022-07-15T00:44:10;5.20;;;2.97;;
19733;SDS011;10018;51.230;7.860;2022-07-15T00:46:36;6.23;;;2.77;;
19733;SDS011;10018;51.230;7.860;2022-07-15T00:49:03;6.27;;;2.47;;
19733;SDS011;10018;51.230;7.860;2022-07-15T00:51:33;4.93;;;2.60;;
19733;SDS011;10018;51.230;7.860;2022-07-15T00:54:00;5.03;;;2.60;;
19733;SDS011;10018;51.230;7.860;2022-07-15T00:56:27;6.13;;;2.43;;
19733;SDS011;10018;51.230;7.860;2022-07-15T00:58:54;5.97;;;2.67;;
19733;SDS011;10018;51.230;7.860;2022-07-15T01:01:22;6.93;;;3.00;;
19733;SDS011;10018;51.230;7.860;2022-07-15T01:03:48;5.43;;;2.70;;
19733;SDS011;10018;51.230;7.860;2022-07-15T01:06:14;4.67;;;2.60;;
19733;SDS011;10018;51.230;7.860;2022-07-15T01:08:40;7.30;;;3.03;;
19733;SDS011;10018;51.230;7.860;2022-07-15T01:11:05;7.30;;;2.73;;
19733;SDS011;10018;51.230;7.860;2022-07-15T01:13:31;5.10;;;2.57;;
19733;SDS011;10018;51.230;7.860;2022-07-15T01:15:57;6.73;;;2.83;;
19733;SDS011;10018;51.230;7.860;2022-07-15T01:18:22;5.00;;;2.70;;
19733;SDS011;10018;51.230;7.860;2022-07-15T01:20:48;5.63;;;2.80;;
19733;SDS011;10018;51.230;7.860;2022-07-15T01:23:14;6.53;;;2.93;;
19733;SDS011;10018;51.230;7.860;2022-07-15T01:25:41;7.13;;;2.43;;
19733;SDS011;10018;51.230;7.860;2022-07-15T01:28:07;7.53;;;2.87;;
19733;SDS011;10018;51.230;7.860;2022-07-15T01:30:33;6.03;;;2.60;;
19733;SDS011;10018;51.230;7.860;2022-07-15T01:33:00;4.73;;;2.50;;
19733;SDS011;10018;51.230;7.860;2022-07-15T01:35:26;4.43;;;2.73;;
19733;SDS011;10018;51.230;7.860;2022-07-15T01:37:52;5.07;;;2.63;;
19733;SDS011;10018;51.230;7.860;2022-07-15T01:40:17;6.40;;;2.90;;
19733;SDS011;10018;51.230;7.860;2022-07-15T01:42:43;6.17;;;2.67;;
19733;SDS011;10018;51.230;7.860;2022-07-15T01:45:09;5.00;;;2.80;;
19733;SDS011;10018;51.230;7.860;2022-07-15T01:47:44;6.00;;;2.50;;
19733;SDS011;10018;51.230;7.860;2022-07-15T01:50:12;5.30;;;2.80;;
19733;SDS011;10018;51.230;7.860;2022-07-15T01:52:38;8.70;;;3.17;;
19733;SDS011;10018;51.230;7.860;2022-07-15T01:55:05;6.33;;;3.33;;
19733;SDS011;10018;51.230;7.860;2022-07-15T01:57:32;7.00;;;3.27;;
19733;SDS011;10018;51.230;7.860;2022-07-15T01:59:58;8.23;;;3.03;;
19733;SDS011;10018;51.230;7.860;2022-07-15T02:02:24;8.33;;;3.27;;
19733;SDS011;10018;51.230;7.860;2022-07-15T02:04:49;6.90;;;3.00;;
19733;SDS011;10018;51.230;7.860;2022-07-15T02:07:15;7.13;;;3.20;;
19733;SDS011;10018;51.230;7.860;2022-07-15T02:09:41;7.43;;;3.33;;
19733;SDS011;10018;51.230;7.860;2022-07-15T02:12:06;10.83;;;4.10;;
19733;SDS011;10018;51.230;7.860;2022-07-15T02:14:32;11.30;;;4.10;;
19733;SDS011;10018;51.230;7.860;2022-07-15T02:16:59;5.50;;;3.07;;
19733;SDS011;10018;51.230;7.860;2022-07-15T02:19:24;7.13;;;2.87;;
19733;SDS011;10018;51.230;7.860;2022-07-15T02:21:50;6.30;;;3.10;;
19733;SDS011;10018;51.230;7.860;2022-07-15T02:24:15;5.27;;;2.60;;
19733;SDS011;10018;51.230;7.860;2022-07-15T02:26:43;7.17;;;2.70;;
19733;SDS011;10018;51.230;7.860;2022-07-15T02:29:09;8.97;;;3.00;;
19733;SDS011;10018;51.230;7.860;2022-07-15T02:31:35;6.73;;;2.80;;
19733;SDS011;10018;51.230;7.860;2022-07-15T02:34:01;9.50;;;2.30;;
19733;SDS011;10018;51.230;7.860;2022-07-15T02:36:26;5.80;;;2.60;;
19733;SDS011;10018;51.230;7.860;2022-07-15T02:38:52;4.83;;;2.50;;
19733;SDS011;10018;51.230;7.860;2022-07-15T02:41:18;6.93;;;2.60;;
19733;SDS011;10018;51.230;7.860;2022-07-15T02:43:43;5.90;;;2.80;;
19733;SDS011;10018;51.230;7.860;2022-07-15T02:46:09;8.10;;;3.10;;
19733;SDS011;10018;51.230;7.860;2022-07-15T02:48:36;6.83;;;2.90;;
19733;SDS011;10018;51.230;7.860;2022-07-15T02:51:02;4.83;;;2.87;;
19733;SDS011;10018;51.230;7.860;2022-07-15T02:53:28;6.70;;;3.00;;
19733;SDS011;10018;51.230;7.860;2022-07-15T02:55:54;5.67;;;3.03;;
19733;SDS011;10018;51.230;7.860;2022-07-15T02:58:24;6.60;;;3.03;;
19733;SDS011;10018;51.230;7.860;2022-07-15T03:00:50;6.03;;;3.20;;
19733;SDS011;10018;51.230;7.860;2022-07-15T03:03:16;10.47;;;3.50;;
19733;SDS011;10018;51.230;7.860;2022-07-15T03:05:42;4.43;;;2.87;;
19733;SDS011;10018;51.230;7.860;2022-07-15T03:08:07;8.43;;;3.20;;
19733;SDS011;10018;51.230;7.860;2022-07-15T03:10:33;8.73;;;3.17;;
19733;SDS011;10018;51.230;7.860;2022-07-15T03:12:58;6.87;;;3.17;;
19733;SDS011;10018;51.230;7.860;2022-07-15T03:15:24;9.30;;;3.40;;
19733;SDS011;10018;51.230;7.860;2022-07-15T03:17:50;6.83;;;3.60;;
19733;SDS011;10018;51.230;7.860;2022-07-15T03:20:16;6.70;;;3.17;;
19733;SDS011;10018;51.230;7.860;2022-07-15T03:22:41;7.73;;;3.60;;
19733;SDS011;10018;51.230;7.860;2022-07-15T03:25:07;13.17;;;3.20;;
19733;SDS011;10018;51.230;7.860;2022-07-15T03:27:33;5.93;;;2.90;;
19733;SDS011;10018;51.230;7.860;2022-07-15T03:29:58;7.53;;;3.33;;
19733;SDS011;10018;51.230;7.860;2022-07-15T03:32:24;4.97;;;2.77;;
19733;SDS011;10018;51.230;7.860;2022-07-15T03:34:50;6.10;;;3.30;;
19733;SDS011;10018;51.230;7.860;2022-07-15T03:37:15;7.07;;;3.33;;
19733;SDS011;10018;51.230;7.860;2022-07-15T03:39:41;7.67;;;3.00;;
19733;SDS011;10018;51.230;7.860;2022-07-15T03:42:07;6.60;;;3.10;;
19733;SDS011;10018;51.230;7.860;2022-07-15T03:44:32;6.00;;;3.27;;
19733;SDS011;10018;51.230;7.860;2022-07-15T03:46:58;12.13;;;3.30;;
19733;SDS011;10018;51.230;7.860;2022-07-15T03:49:23;9.43;;;3.40;;
19733;SDS011;10018;51.230;7.860;2022-07-15T03:51:49;6.37;;;3.03;;
19733;SDS011;10018;51.230;7.860;2022-07-15T03:54:15;7.93;;;3.30;;
19733;SDS011;10018;51.230;7.860;2022-07-15T03:56:40;7.07;;;3.10;;
19733;SDS011;10018;51.230;7.860;2022-07-15T03:59:06;7.03;;;2.97;;
19733;SDS011;10018;51.230;7.860;2022-07-15T04:01:32;8.70;;;3.40;;
19733;SDS011;10018;51.230;7.860;2022-07-15T04:03:57;7.50;;;3.40;;
19733;SDS011;10018;51.230;7.860;2022-07-15T04:06:23;10.17;;;3.50;;
19733;SDS011;10018;51.230;7.860;2022-07-15T04:08:49;6.00;;;3.30;;
19733;SDS011;10018;51.230;7.860;2022-07-15T04:11:15;7.00;;;3.60;;
19733;SDS011;10018;51.230;7.860;2022-07-15T04:13:41;7.53;;;3.43;;
19733;SDS011;10018;51.230;7.860;2022-07-15T04:16:07;9.70;;;3.73;;
19733;SDS011;10018;51.230;7.860;2022-07-15T04:18:34;7.77;;;3.60;;
19733;SDS011;10018;51.230;7.860;2022-07-15T04:21:00;9.93;;;3.23;;
19733;SDS011;10018;51.230;7.860;2022-07-15T04:23:25;8.13;;;3.27;;
19733;SDS011;10018;51.230;7.860;2022-07-15T04:25:51;9.80;;;4.00;;
19733;SDS011;10018;51.230;7.860;2022-07-15T04:28:21;9.60;;;3.63;;
19733;SDS011;10018;51.230;7.860;2022-07-15T04:30:47;8.03;;;4.27;;
19733;SDS011;10018;51.230;7.860;2022-07-15T04:33:13;9.20;;;3.80;;
19733;SDS011;10018;51.230;7.860;2022-07-15T04:35:38;10.50;;;4.13;;
19733;SDS011;10018;51.230;7.860;2022-07-15T04:38:04;9.60;;;3.67;;
19733;SDS011;10018;51.230;7.860;2022-07-15T04:40:31;8.00;;;3.70;;
19733;SDS011;10018;51.230;7.860;2022-07-15T04:42:57;11.60;;;4.13;;
19733;SDS011;10018;51.230;7.860;2022-07-15T04:45:23;10.87;;;4.43;;
19733;SDS011;10018;51.230;7.860;2022-07-15T04:47:49;8.43;;;3.80;;
19733;SDS011;10018;51.230;7.860;2022-07-15T04:50:14;7.03;;;3.63;;
19733;SDS011;10018;51.230;7.860;2022-07-15T04:52:59;8.43;;;4.37;;
19733;SDS011;10018;51.230;7.860;2022-07-15T04:55:24;10.97;;;4.23;;
19733;SDS011;10018;51.230;7.860;2022-07-15T04:57:51;7.30;;;4.13;;
19733;SDS011;10018;51.230;7.860;2022-07-15T05:00:17;9.47;;;3.83;;
19733;SDS011;10018;51.230;7.860;2022-07-15T05:02:42;7.20;;;3.57;;
19733;SDS011;10018;51.230;7.860;2022-07-15T05:05:08;10.73;;;4.10;;
19733;SDS011;10018;51.230;7.860;2022-07-15T05:07:33;7.87;;;3.97;;
19733;SDS011;10018;51.230;7.860;2022-07-15T05:09:59;8.90;;;3.90;;
19733;SDS011;10018;51.230;7.860;2022-07-15T05:12:25;11.27;;;3.77;;
19733;SDS011;10018;51.230;7.860;2022-07-15T05:14:50;11.90;;;3.60;;
19733;SDS011;10018;51.230;7.860;2022-07-15T05:17:16;8.43;;;3.33;;
19733;SDS011;10018;51.230;7.860;2022-07-15T05:19:41;7.60;;;2.97;;
19733;SDS011;10018;51.230;7.860;2022-07-15T05:22:07;11.07;;;3.03;;
19733;SDS011;10018;51.230;7.860;2022-07-15T05:24:32;7.50;;;2.77;;
19733;SDS011;10018;51.230;7.860;2022-07-15T05:26:58;8.67;;;3.27;;
19733;SDS011;10018;51.230;7.860;2022-07-15T05:29:24;9.00;;;3.23;;
19733;SDS011;10018;51.230;7.860;2022-07-15T05:31:49;7.87;;;3.90;;
19733;SDS011;10018;51.230;7.860;2022-07-15T05:34:15;11.07;;;4.73;;
19733;SDS011;10018;51.230;7.860;2022-07-15T05:36:41;11.93;;;4.07;;
19733;SDS011;10018;51.230;7.860;2022-07-15T05:39:07;9.07;;;4.20;;
19733;SDS011;10018;51.230;7.860;2022-07-15T05:41:32;11.53;;;3.80;;
19733;SDS011;10018;51.230;7.860;2022-07-15T05:43:58;10.20;;;4.43;;
19733;SDS011;10018;51.230;7.860;2022-07-15T05:46:24;10.03;;;4.33;;
19733;SDS011;10018;51.230;7.860;2022-07-15T05:48:50;9.37;;;4.50;;
19733;SDS011;10018;51.230;7.860;2022-07-15T05:51:16;12.27;;;4.90;;
19733;SDS011;10018;51.230;7.860;2022-07-15T05:53:41;8.70;;;4.43;;
19733;SDS011;10018;51.230;7.860;2022-07-15T05:56:07;9.07;;;4.63;;
19733;SDS011;10018;51.230;7.860;2022-07-15T05:58:33;10.57;;;3.50;;
19733;SDS011;10018;51.230;7.860;2022-07-15T06:00:58;8.03;;;3.30;;
19733;SDS011;10018;51.230;7.860;2022-07-15T06:03:24;7.03;;;3.13;;
19733;SDS011;10018;51.230;7.860;2022-07-15T06:05:50;8.50;;;2.60;;
19733;SDS011;10018;51.230;7.860;2022-07-15T06:08:15;6.97;;;2.60;;
19733;SDS011;10018;51.230;7.860;2022-07-15T06:10:41;7.57;;;2.83;;
19733;SDS011;10018;51.230;7.860;2022-07-15T06:13:07;7.40;;;2.60;;
19733;SDS011;10018;51.230;7.860;2022-07-15T06:15:33;7.50;;;2.80;;
19733;SDS011;10018;51.230;7.860;2022-07-15T06:17:58;6.43;;;2.83;;
19733;SDS011;10018;51.230;7.860;2022-07-15T06:20:25;8.07;;;2.50;;
19733;SDS011;10018;51.230;7.860;2022-07-15T06:22:51;8.07;;;2.20;;
19733;SDS011;10018;51.230;7.860;2022-07-15T06:25:16;8.63;;;2.80;;
19733;SDS011;10018;51.230;7.860;2022-07-15T06:27:42;7.03;;;3.10;;
19733;SDS011;10018;51.230;7.860;2022-07-15T06:30:08;10.77;;;2.90;;
19733;SDS011;10018;51.230;7.860;2022-07-15T06:32:34;9.50;;;2.37;;
19733;SDS011;10018;51.230;7.860;2022-07-15T06:34:59;6.53;;;2.43;;
19733;SDS011;10018;51.230;7.860;2022-07-15T06:37:25;7.57;;;2.87;;
19733;SDS011;10018;51.230;7.860;2022-07-15T06:39:52;10.37;;;3.67;;
19733;SDS011;10018;51.230;7.860;2022-07-15T06:42:19;8.20;;;3.63;;
19733;SDS011;10018;51.230;7.860;2022-07-15T06:44:45;11.27;;;3.57;;
19733;SDS011;10018;51.230;7.860;2022-07-15T06:47:11;9.93;;;3.10;;
19733;SDS011;10018;51.230;7.860;2022-07-15T06:49:37;10.47;;;3.00;;
19733;SDS011;10018;51.230;7.860;2022-07-15T06:52:03;7.93;;;2.50;;
19733;SDS011;10018;51.230;7.860;2022-07-15T06:54:29;10.77;;;2.07;;
19733;SDS011;10018;51.230;7.860;2022-07-15T06:56:55;4.63;;;1.90;;
19733;SDS011;10018;51.230;7.860;2022-07-15T06:59:22;5.53;;;1.97;;
19733;SDS011;10018;51.230;7.860;2022-07-15T07:01:47;6.30;;;2.03;;
19733;SDS011;10018;51.230;7.860;2022-07-15T07:04:13;5.23;;;1.87;;
19733;SDS011;10018;51.230;7.860;2022-07-15T07:06:38;8.07;;;1.93;;
19733;SDS011;10018;51.230;7.860;2022-07-15T07:09:04;6.77;;;2.10;;
19733;SDS011;10018;51.230;7.860;2022-07-15T07:11:30;4.03;;;1.70;;
19733;SDS011;10018;51.230;7.860;2022-07-15T07:13:57;7.63;;;1.80;;
19733;SDS011;10018;51.230;7.860;2022-07-15T07:16:24;9.47;;;2.00;;
19733;SDS011;10018;51.230;7.860;2022-07-15T07:18:50;3.70;;;1.60;;
19733;SDS011;10018;51.230;7.860;2022-07-15T07:21:16;6.97;;;1.27;;
19733;SDS011;10018;51.230;7.860;2022-07-15T07:23:42;6.43;;;1.60;;
19733;SDS011;10018;51.230;7.860;2022-07-15T07:26:08;4.50;;;1.53;;
19733;SDS011;10018;51.230;7.860;2022-07-15T07:28:34;2.80;;;1.60;;
19733;SDS011;10018;51.230;7.860;2022-07-15T07:31:00;6.00;;;1.33;;
19733;SDS011;10018;51.230;7.860;2022-07-15T07:33:26;5.70;;;1.90;;
19733;SDS011;10018;51.230;7.860;2022-07-15T07:35:51;7.43;;;2.07;;
19733;SDS011;10018;51.230;7.860;2022-07-15T07:38:17;5.63;;;1.70;;
19733;SDS011;10018;51.230;7.860;2022-07-15T07:40:44;6.87;;;1.47;;
19733;SDS011;10018;51.230;7.860;2022-07-15T07:43:13;5.13;;;1.50;;
19733;SDS011;10018;51.230;7.860;2022-07-15T07:45:39;7.00;;;1.87;;
19733;SDS011;10018;51.230;7.860;2022-07-15T07:48:05;6.40;;;1.60;;
19733;SDS011;10018;51.230;7.860;2022-07-15T07:50:31;10.30;;;2.90;;
19733;SDS011;10018;51.230;7.860;2022-07-15T07:52:57;7.87;;;1.10;;
19733;SDS011;10018;51.230;7.860;2022-07-15T07:55:22;6.03;;;1.23;;
19733;SDS011;10018;51.230;7.860;2022-07-15T07:57:49;5.50;;;1.23;;
19733;SDS011;10018;51.230;7.860;2022-07-15T08:00:17;6.67;;;1.20;;
19733;SDS011;10018;51.230;7.860;2022-07-15T08:02:43;6.70;;;1.00;;
19733;SDS011;10018;51.230;7.860;2022-07-15T08:05:10;5.67;;;1.10;;
19733;SDS011;10018;51.230;7.860;2022-07-15T08:07:36;4.60;;;1.30;;
19733;SDS011;10018;51.230;7.860;2022-07-15T08:10:02;6.07;;;1.10;;
19733;SDS011;10018;51.230;7.860;2022-07-15T08:12:29;6.27;;;1.40;;
19733;SDS011;10018;51.230;7.860;2022-07-15T08:14:54;4.47;;;1.30;;
19733;SDS011;10018;51.230;7.860;2022-07-15T08:17:23;6.23;;;1.40;;
19733;SDS011;10018;51.230;7.860;2022-07-15T08:19:48;7.43;;;1.47;;
19733;SDS011;10018;51.230;7.860;2022-07-15T08:22:14;9.97;;;1.20;;
19733;SDS011;10018;51.230;7.860;2022-07-15T08:24:40;5.30;;;1.10;;
19733;SDS011;10018;51.230;7.860;2022-07-15T08:27:06;6.30;;;1.10;;
19733;SDS011;10018;51.230;7.860;2022-07-15T08:29:33;7.33;;;1.23;;
19733;SDS011;10018;51.230;7.860;2022-07-15T08:31:59;6.70;;;1.50;;
19733;SDS011;10018;51.230;7.860;2022-07-15T08:34:25;3.67;;;1.00;;
19733;SDS011;10018;51.230;7.860;2022-07-15T08:36:50;5.33;;;1.37;;
19733;SDS011;10018;51.230;7.860;2022-07-15T08:39:16;4.03;;;1.10;;
19733;SDS011;10018;51.230;7.860;2022-07-15T08:41:42;3.80;;;0.97;;
19733;SDS011;10018;51.230;7.860;2022-07-15T08:44:07;4.53;;;1.00;;
19733;SDS011;10018;51.230;7.860;2022-07-15T08:46:34;3.77;;;0.90;;
19733;SDS011;10018;51.230;7.860;2022-07-15T08:49:06;4.53;;;0.90;;
19733;SDS011;10018;51.230;7.860;2022-07-15T08:51:36;3.57;;;0.93;;
19733;SDS011;10018;51.230;7.860;2022-07-15T08:54:03;4.27;;;1.07;;
19733;SDS011;10018;51.230;7.860;2022-07-15T08:56:31;5.27;;;1.00;;
19733;SDS011;10018;51.230;7.860;2022-07-15T08:58:57;6.33;;;1.00;;
19733;SDS011;10018;51.230;7.860;2022-07-15T09:01:23;2.73;;;0.73;;
19733;SDS011;10018;51.230;7.860;2022-07-15T09:03:49;3.77;;;0.70;;
19733;SDS011;10018;51.230;7.860;2022-07-15T09:06:33;2.70;;;0.60;;
19733;SDS011;10018;51.230;7.860;2022-07-15T09:11:53;4.37;;;0.73;;
19733;SDS011;10018;51.230;7.860;2022-07-15T09:14:21;2.97;;;0.80;;
19733;SDS011;10018;51.230;7.860;2022-07-15T09:16:46;5.17;;;0.80;;
19733;SDS011;10018;51.230;7.860;2022-07-15T09:19:12;3.33;;;0.70;;
19733;SDS011;10018;51.230;7.860;2022-07-15T09:21:37;3.63;;;0.80;;
19733;SDS011;10018;51.230;7.860;2022-07-15T09:24:17;3.97;;;0.70;;
19733;SDS011;10018;51.230;7.860;2022-07-15T09:26:43;3.77;;;0.80;;
19733;SDS011;10018;51.230;7.860;2022-07-15T09:29:09;4.47;;;1.00;;
19733;SDS011;10018;51.230;7.860;2022-07-15T09:31:58;4.07;;;0.80;;
19733;SDS011;10018;51.230;7.860;2022-07-15T09:35:04;2.97;;;0.67;;
19733;SDS011;10018;51.230;7.860;2022-07-15T09:37:57;4.13;;;0.90;;
19733;SDS011;10018;51.230;7.860;2022-07-15T09:40:23;3.77;;;1.20;;
19733;SDS011;10018;51.230;7.860;2022-07-15T09:43:02;3.43;;;0.70;;
19733;SDS011;10018;51.230;7.860;2022-07-15T09:45:30;8.57;;;1.10;;
19733;SDS011;10018;51.230;7.860;2022-07-15T09:48:07;4.37;;;0.90;;
19733;SDS011;10018;51.230;7.860;2022-07-15T09:50:36;3.77;;;0.90;;
19733;SDS011;10018;51.230;7.860;2022-07-15T09:53:03;4.80;;;0.90;;
19733;SDS011;10018;51.230;7.860;2022-07-15T09:55:34;6.77;;;0.90;;
19733;SDS011;10018;51.230;7.860;2022-07-15T09:58:02;3.13;;;0.80;;
19733;SDS011;10018;51.230;7.860;2022-07-15T10:00:30;5.77;;;0.90;;
19733;SDS011;10018;51.230;7.860;2022-07-15T10:02:56;2.87;;;0.80;;
19733;SDS011;10018;51.230;7.860;2022-07-15T10:05:22;3.17;;;0.73;;
19733;SDS011;10018;51.230;7.860;2022-07-15T10:07:47;6.07;;;1.00;;
19733;SDS011;10018;51.230;7.860;2022-07-15T10:10:15;4.87;;;0.80;;
19733;SDS011;10018;51.230;7.860;2022-07-15T10:13:25;4.33;;;1.10;;
19733;SDS011;10018;51.230;7.860;2022-07-15T10:21:02;3.90;;;1.00;;
19733;SDS011;10018;51.230;7.860;2022-07-15T10:27:29;3.60;;;1.20;;
19733;SDS011;10018;51.230;7.860;2022-07-15T10:29:42;7.63;;;1.27;;
19733;SDS011;10018;51.230;7.860;2022-07-15T10:32:08;4.17;;;1.00;;
19733;SDS011;10018;51.230;7.860;2022-07-15T10:34:34;6.53;;;1.37;;
19733;SDS011;10018;51.230;7.860;2022-07-15T10:37:05;4.27;;;1.10;;
19733;SDS011;10018;51.230;7.860;2022-07-15T10:39:54;5.23;;;1.20;;
19733;SDS011;10018;51.230;7.860;2022-07-15T10:42:56;6.40;;;1.20;;
19733;SDS011;10018;51.230;7.860;2022-07-15T10:45:26;7.30;;;1.13;;
19733;SDS011;10018;51.230;7.860;2022-07-15T10:48:24;3.93;;;1.00;;
19733;SDS011;10018;51.230;7.860;2022-07-15T10:50:50;4.00;;;1.20;;
19733;SDS011;10018;51.230;7.860;2022-07-15T10:53:16;3.87;;;1.33;;
19733;SDS011;10018;51.230;7.860;2022-07-15T10:55:45;5.27;;;1.03;;
19733;SDS011;10018;51.230;7.860;2022-07-15T10:58:11;3.80;;;1.10;;
19733;SDS011;10018;51.230;7.860;2022-07-15T11:00:39;3.97;;;1.00;;
19733;SDS011;10018;51.230;7.860;2022-07-15T11:11:44;4.17;;;1.20;;
19733;SDS011;10018;51.230;7.860;2022-07-15T11:13:44;3.67;;;1.23;;
19733;SDS011;10018;51.230;7.860;2022-07-15T11:16:13;6.07;;;1.30;;
19733;SDS011;10018;51.230;7.860;2022-07-15T11:18:53;5.67;;;1.40;;
19733;SDS011;10018;51.230;7.860;2022-07-15T11:21:20;7.00;;;1.43;;
19733;SDS011;10018;51.230;7.860;2022-07-15T11:23:46;4.63;;;1.20;;
19733;SDS011;10018;51.230;7.860;2022-07-15T11:26:14;6.87;;;1.40;;
19733;SDS011;10018;51.230;7.860;2022-07-15T11:28:53;4.70;;;1.30;;
19733;SDS011;10018;51.230;7.860;2022-07-15T11:31:20;5.03;;;0.97;;
19733;SDS011;10018;51.230;7.860;2022-07-15T11:33:46;3.73;;;1.00;;
19733;SDS011;10018;51.230;7.860;2022-07-15T11:36:18;5.00;;;0.97;;
19733;SDS011;10018;51.230;7.860;2022-07-15T11:38:47;4.90;;;1.47;;
19733;SDS011;10018;51.230;7.860;2022-07-15T11:41:12;5.30;;;1.37;;
19733;SDS011;10018;51.230;7.860;2022-07-15T11:44:02;5.77;;;1.43;;
19733;SDS011;10018;51.230;7.860;2022-07-15T11:46:51;5.67;;;1.37;;
19733;SDS011;10018;51.230;7.860;2022-07-15T11:51:53;4.37;;;1.10;;
19733;SDS011;10018;51.230;7.860;2022-07-15T11:54:19;3.90;;;1.30;;
19733;SDS011;10018;51.230;7.860;2022-07-15T11:59:20;3.83;;;1.23;;
19733;SDS011;10018;51.230;7.860;2022-07-15T12:01:46;4.23;;;1.40;;
19733;SDS011;10018;51.230;7.860;2022-07-15T12:04:12;4.47;;;1.60;;
19733;SDS011;10018;51.230;7.860;2022-07-15T12:06:37;3.93;;;1.20;;
19733;SDS011;10018;51.230;7.860;2022-07-15T12:09:04;4.23;;;1.23;;
19733;SDS011;10018;51.230;7.860;2022-07-15T12:11:36;5.07;;;1.70;;
19733;SDS011;10018;51.230;7.860;2022-07-15T12:14:04;4.83;;;1.57;;
19733;SDS011;10018;51.230;7.860;2022-07-15T12:16:32;5.20;;;1.43;;
19733;SDS011;10018;51.230;7.860;2022-07-15T12:19:04;5.07;;;1.63;;
19733;SDS011;10018;51.230;7.860;2022-07-15T12:21:38;5.83;;;1.63;;
19733;SDS011;10018;51.230;7.860;2022-07-15T12:27:15;7.03;;;1.67;;
19733;SDS011;10018;51.230;7.860;2022-07-15T12:29:32;2.47;;;1.13;;
19733;SDS011;10018;51.230;7.860;2022-07-15T12:31:59;8.10;;;1.57;;
19733;SDS011;10018;51.230;7.860;2022-07-15T12:34:51;3.20;;;1.30;;
19733;SDS011;10018;51.230;7.860;2022-07-15T12:37:25;4.53;;;1.27;;
19733;SDS011;10018;51.230;7.860;2022-07-15T12:39:53;6.10;;;1.70;;
19733;SDS011;10018;51.230;7.860;2022-07-15T12:42:23;3.97;;;1.20;;
19733;SDS011;10018;51.230;7.860;2022-07-15T12:45:07;4.77;;;1.13;;
19733;SDS011;10018;51.230;7.860;2022-07-15T12:50:29;4.90;;;1.20;;
19733;SDS011;10018;51.230;7.860;2022-07-15T12:53:00;5.07;;;1.20;;
19733;SDS011;10018;51.230;7.860;2022-07-15T12:55:27;5.47;;;1.37;;
19733;SDS011;10018;51.230;7.860;2022-07-15T12:58:04;6.03;;;1.23;;
19733;SDS011;10018;51.230;7.860;2022-07-15T13:00:35;4.80;;;1.33;;
19733;SDS011;10018;51.230;7.860;2022-07-15T13:03:08;8.10;;;1.37;;
19733;SDS011;10018;51.230;7.860;2022-07-15T13:05:43;5.43;;;1.30;;
19733;SDS011;10018;51.230;7.860;2022-07-15T13:08:11;3.67;;;1.40;;
19733;SDS011;10018;51.230;7.860;2022-07-15T13:10:40;4.17;;;1.10;;
19733;SDS011;10018;51.230;7.860;2022-07-15T13:13:08;7.07;;;1.27;;
19733;SDS011;10018;51.230;7.860;2022-07-15T13:15:35;9.87;;;1.60;;
19733;SDS011;10018;51.230;7.860;2022-07-15T13:18:01;4.43;;;1.40;;
19733;SDS011;10018;51.230;7.860;2022-07-15T13:20:27;4.87;;;1.23;;
19733;SDS011;10018;51.230;7.860;2022-07-15T13:22:53;7.70;;;1.53;;
19733;SDS011;10018;51.230;7.860;2022-07-15T13:25:18;4.73;;;1.30;;
19733;SDS011;10018;51.230;7.860;2022-07-15T13:27:44;3.97;;;1.30;;
19733;SDS011;10018;51.230;7.860;2022-07-15T13:30:10;5.97;;;1.53;;
19733;SDS011;10018;51.230;7.860;2022-07-15T13:32:37;4.87;;;1.37;;
19733;SDS011;10018;51.230;7.860;2022-07-15T13:35:04;5.63;;;1.50;;
19733;SDS011;10018;51.230;7.860;2022-07-15T13:37:30;5.17;;;1.47;;
19733;SDS011;10018;51.230;7.860;2022-07-15T13:39:56;4.27;;;1.40;;
19733;SDS011;10018;51.230;7.860;2022-07-15T13:42:21;5.00;;;1.40;;
19733;SDS011;10018;51.230;7.860;2022-07-15T13:44:49;4.57;;;1.57;;
19733;SDS011;10018;51.230;7.860;2022-07-15T13:47:15;3.90;;;1.50;;
19733;SDS011;10018;51.230;7.860;2022-07-15T13:49:41;5.87;;;1.53;;
19733;SDS011;10018;51.230;7.860;2022-07-15T13:52:25;4.57;;;1.33;;
19733;SDS011;10018;51.230;7.860;2022-07-15T13:54:51;5.67;;;1.20;;
19733;SDS011;10018;51.230;7.860;2022-07-15T13:57:16;5.07;;;1.20;;
19733;SDS011;10018;51.230;7.860;2022-07-15T13:59:41;8.10;;;1.40;;
19733;SDS011;10018;51.230;7.860;2022-07-15T14:02:07;5.57;;;1.10;;
19733;SDS011;10018;51.230;7.860;2022-07-15T14:04:33;4.37;;;1.33;;
19733;SDS011;10018;51.230;7.860;2022-07-15T14:06:59;6.40;;;1.37;;
19733;SDS011;10018;51.230;7.860;2022-07-15T14:09:24;4.40;;;1.30;;
19733;SDS011;10018;51.230;7.860;2022-07-15T14:11:50;5.67;;;1.10;;
19733;SDS011;10018;51.230;7.860;2022-07-15T14:14:16;4.60;;;1.20;;
19733;SDS011;10018;51.230;7.860;2022-07-15T14:16:41;5.43;;;1.43;;
19733;SDS011;10018;51.230;7.860;2022-07-15T14:19:07;3.57;;;1.23;;
19733;SDS011;10018;51.230;7.860;2022-07-15T14:21:33;2.60;;;1.20;;
19733;SDS011;10018;51.230;7.860;2022-07-15T14:23:59;5.13;;;1.10;;
19733;SDS011;10018;51.230;7.860;2022-07-15T14:26:24;3.57;;;1.03;;
19733;SDS011;10018;51.230;7.860;2022-07-15T14:28:50;5.60;;;1.30;;
19733;SDS011;10018;51.230;7.860;2022-07-15T14:31:15;6.67;;;1.30;;
19733;SDS011;10018;51.230;7.860;2022-07-15T14:33:42;4.23;;;1.10;;
19733;SDS011;10018;51.230;7.860;2022-07-15T14:36:08;3.40;;;1.03;;
19733;SDS011;10018;51.230;7.860;2022-07-15T14:38:36;4.10;;;1.13;;
19733;SDS011;10018;51.230;7.860;2022-07-15T14:41:02;5.17;;;1.33;;
19733;SDS011;10018;51.230;7.860;2022-07-15T14:43:28;4.67;;;1.27;;
19733;SDS011;10018;51.230;7.860;2022-07-15T14:45:54;3.40;;;1.17;;
19733;SDS011;10018;51.230;7.860;2022-07-15T14:48:19;6.60;;;1.53;;
19733;SDS011;10018;51.230;7.860;2022-07-15T14:50:45;4.67;;;1.20;;
19733;SDS011;10018;51.230;7.860;2022-07-15T14:53:11;6.80;;;1.70;;
19733;SDS011;10018;51.230;7.860;2022-07-15T14:55:37;7.37;;;1.30;;
19733;SDS011;10018;51.230;7.860;2022-07-15T14:58:02;4.80;;;1.40;;
19733;SDS011;10018;51.230;7.860;2022-07-15T15:00:28;5.00;;;1.53;;
19733;SDS011;10018;51.230;7.860;2022-07-15T15:02:54;4.33;;;1.37;;
19733;SDS011;10018;51.230;7.860;2022-07-15T15:05:20;4.33;;;1.20;;
19733;SDS011;10018;51.230;7.860;2022-07-15T15:07:45;2.17;;;1.10;;
19733;SDS011;10018;51.230;7.860;2022-07-15T15:10:11;3.53;;;1.23;;
19733;SDS011;10018;51.230;7.860;2022-07-15T15:12:38;4.43;;;1.20;;
19733;SDS011;10018;51.230;7.860;2022-07-15T15:15:04;6.23;;;1.10;;
19733;SDS011;10018;51.230;7.860;2022-07-15T15:17:30;2.73;;;1.10;;